Time;durP1;ratioP1;P1;durP2;ratioP2;P2;SDS_P1;SDS_P2;PMS_P1;PMS_P2;Temp;Humidity;BMP_temperature;BMP_pressure;BME280_temperature;BME280_humidity;BME280_pressure;Samples;Min_cycle;Max_cycle;Signal;HPM_P1;HPM_P2
2022/11/14 00:00:44;;;;;;;6.18;5.68;;;;;;;;;;4986257;28;20122;-74
2022/11/14 00:03:30;;;;;;;7.80;7.10;;;;;;;;;;4970487;28;20577;-74
2022/11/14 00:06:16;;;;;;;7.50;6.78;;;;;;;;;;4968171;28;20050;-74
2022/11/14 00:09:02;;;;;;;6.93;6.38;;;;;;;;;;4970491;28;20062;-75
2022/11/14 00:11:48;;;;;;;7.00;6.30;;;;;;;;;;4970072;28;20039;-74
2022/11/14 00:14:34;;;;;;;6.80;6.18;;;;;;;;;;4976088;28;20066;-75
2022/11/14 00:17:19;;;;;;;6.40;5.80;;;;;;;;;;4971611;28;20418;-75
2022/11/14 00:20:07;;;;;;;6.60;6.00;;;;;;;;;;4975211;28;20250;-73
2022/11/14 00:22:53;;;;;;;5.18;4.78;;;;;;;;;;4971517;28;20049;-74
2022/11/14 00:25:39;;;;;;;6.38;5.85;;;;;;;;;;4968822;28;20445;-75
2022/11/14 00:28:24;;;;;;;6.25;5.68;;;;;;;;;;4969337;28;20152;-75
2022/11/14 00:31:10;;;;;;;5.97;5.50;;;;;;;;;;4969561;28;20221;-74
2022/11/14 00:33:56;;;;;;;6.53;5.97;;;;;;;;;;4969738;28;20499;-74
2022/11/14 00:36:42;;;;;;;6.85;6.25;;;;;;;;;;4969282;28;20043;-76
2022/11/14 00:39:28;;;;;;;6.53;6.00;;;;;;;;;;4970187;28;20035;-74
2022/11/14 00:42:14;;;;;;;6.53;5.70;;;;;;;;;;4957792;28;20043;-75
2022/11/14 00:45:00;;;;;;;6.47;5.97;;;;;;;;;;4971172;28;20450;-75
2022/11/14 00:47:46;;;;;;;6.68;6.13;;;;;;;;;;4968353;28;20122;-75
2022/11/14 00:50:31;;;;;;;7.85;7.15;;;;;;;;;;4969970;28;20173;-75
2022/11/14 00:53:17;;;;;;;7.72;7.13;;;;;;;;;;4953439;28;20054;-75
2022/11/14 00:56:04;;;;;;;7.55;6.88;;;;;;;;;;4952795;28;20502;-74
2022/11/14 00:58:50;;;;;;;6.93;6.25;;;;;;;;;;4966795;28;20580;-75
2022/11/14 01:01:35;;;;;;;7.10;6.22;;;;;;;;;;4967051;28;20051;-75
2022/11/14 01:04:21;;;;;;;6.80;6.22;;;;;;;;;;4949480;28;20067;-74
2022/11/14 01:07:08;;;;;;;5.80;5.40;;;;;;;;;;4964432;28;20061;-74
2022/11/14 01:09:54;;;;;;;7.63;6.85;;;;;;;;;;4967676;28;20054;-74
2022/11/14 01:12:39;;;;;;;7.38;6.68;;;;;;;;;;4967216;28;20035;-73
2022/11/14 01:15:25;;;;;;;7.18;6.57;;;;;;;;;;4968134;28;20092;-75
2022/11/14 01:18:12;;;;;;;6.75;5.88;;;;;;;;;;4965842;28;20039;-75
2022/11/14 01:20:58;;;;;;;8.18;7.38;;;;;;;;;;4967002;28;20038;-75
2022/11/14 01:23:44;;;;;;;6.85;6.30;;;;;;;;;;4952674;28;20057;-74
2022/11/14 01:26:30;;;;;;;6.80;6.20;;;;;;;;;;4963601;28;20050;-74
2022/11/14 01:29:37;;;;;;;6.85;6.25;;;;;;;;;;4963700;28;20423;-74
2022/11/14 01:32:26;;;;;;;8.30;7.50;;;;;;;;;;4962045;28;20053;-74
2022/11/14 01:35:12;;;;;;;8.85;8.05;;;;;;;;;;4969173;28;20043;-74
2022/11/14 01:37:58;;;;;;;9.38;7.75;;;;;;;;;;4967099;28;20035;-74
2022/11/14 01:43:42;;;;;;;8.82;8.02;;;;;;;;;;4763029;30;20078;-70
2022/11/14 01:46:30;;;;;;;6.85;6.30;;;;;;;;;;4757020;30;20067;-70
2022/11/14 01:49:24;;;;;;;7.47;6.78;;;;;;;;;;4752940;30;20548;-70
2022/11/14 01:52:27;;;;;;;7.32;6.72;;;;;;;;;;4748675;30;20079;-70
2022/11/14 01:55:14;;;;;;;6.72;6.13;;;;;;;;;;4756583;30;20071;-70
2022/11/14 01:58:00;;;;;;;9.05;7.10;;;;;;;;;;4756988;30;20044;-70
2022/11/14 02:00:46;;;;;;;12.85;11.88;;;;;;;;;;4761513;30;20048;-70
2022/11/14 02:03:33;;;;;;;7.20;6.60;;;;;;;;;;4752104;30;20136;-70
2022/11/14 02:06:19;;;;;;;8.85;8.13;;;;;;;;;;4760892;30;20178;-69
2022/11/14 02:09:06;;;;;;;6.88;6.28;;;;;;;;;;4763381;30;20043;-70
2022/11/14 02:11:53;;;;;;;6.47;5.90;;;;;;;;;;4753690;30;20132;-70
2022/11/14 02:14:39;;;;;;;6.28;5.78;;;;;;;;;;4760624;30;20160;-70
2022/11/14 02:17:25;;;;;;;7.35;6.75;;;;;;;;;;4761961;30;20437;-70
2022/11/14 02:20:28;;;;;;;6.93;6.40;;;;;;;;;;4751056;30;20044;-69
2022/11/14 02:23:14;;;;;;;6.03;5.53;;;;;;;;;;4754703;30;20463;-70
2022/11/14 02:26:00;;;;;;;6.88;6.32;;;;;;;;;;4745376;30;20055;-70
2022/11/14 02:28:47;;;;;;;6.18;5.75;;;;;;;;;;4760205;30;20389;-70
2022/11/14 02:31:32;;;;;;;7.30;6.70;;;;;;;;;;4757421;30;20434;-70
2022/11/14 02:34:19;;;;;;;8.50;7.80;;;;;;;;;;4756496;30;20052;-69
2022/11/14 02:37:05;;;;;;;6.60;6.10;;;;;;;;;;4752635;30;20050;-69
2022/11/14 02:39:51;;;;;;;6.40;5.90;;;;;;;;;;4757344;30;20120;-70
2022/11/14 02:42:37;;;;;;;9.40;8.70;;;;;;;;;;4753549;30;20044;-69
2022/11/14 02:45:22;;;;;;;7.55;7.00;;;;;;;;;;4761438;30;20154;-70
2022/11/14 02:48:08;;;;;;;6.55;6.05;;;;;;;;;;4755480;30;20051;-70
2022/11/14 02:50:54;;;;;;;6.93;6.45;;;;;;;;;;4745100;30;20119;-70
2022/11/14 02:53:40;;;;;;;8.80;8.15;;;;;;;;;;4744493;30;20052;-70
2022/11/14 02:56:26;;;;;;;7.63;6.93;;;;;;;;;;4756036;30;20435;-69
2022/11/14 02:59:12;;;;;;;7.82;7.13;;;;;;;;;;4759713;30;20050;-69
2022/11/14 03:01:57;;;;;;;40.08;37.65;;;;;;;;;;4756328;30;20854;-69
2022/11/14 03:04:44;;;;;;;7.97;7.38;;;;;;;;;;4750442;30;20055;-69
2022/11/14 03:07:30;;;;;;;8.45;7.75;;;;;;;;;;4755551;30;20060;-70
2022/11/14 03:10:16;;;;;;;7.63;7.13;;;;;;;;;;4754098;30;20448;-69
2022/11/14 03:13:01;;;;;;;8.18;7.57;;;;;;;;;;4756227;30;20055;-69
2022/11/14 03:15:47;;;;;;;7.38;6.88;;;;;;;;;;4761038;30;20040;-69
2022/11/14 03:18:34;;;;;;;7.25;6.60;;;;;;;;;;4753028;30;20054;-69
2022/11/14 03:21:20;;;;;;;8.73;7.82;;;;;;;;;;4753369;30;20048;-69
2022/11/14 03:24:06;;;;;;;6.88;6.35;;;;;;;;;;4759512;30;20429;-70
2022/11/14 03:26:52;;;;;;;6.93;6.43;;;;;;;;;;4757010;30;20048;-70
2022/11/14 03:29:38;;;;;;;7.60;7.00;;;;;;;;;;4758452;30;20036;-69
2022/11/14 03:32:24;;;;;;;6.78;5.75;;;;;;;;;;4758162;30;20479;-70
2022/11/14 03:35:09;;;;;;;7.18;6.00;;;;;;;;;;4753054;30;20044;-69
2022/11/14 03:37:55;;;;;;;6.72;6.22;;;;;;;;;;4750683;30;20070;-70
2022/11/14 03:40:42;;;;;;;7.30;6.70;;;;;;;;;;4759437;30;20117;-69
2022/11/14 03:43:30;;;;;;;5.63;5.20;;;;;;;;;;4758653;30;20055;-70
2022/11/14 03:46:16;;;;;;;6.10;5.65;;;;;;;;;;4752344;30;20425;-69
2022/11/14 03:49:03;;;;;;;6.72;6.13;;;;;;;;;;4761754;30;20335;-70
2022/11/14 03:51:49;;;;;;;6.38;5.63;;;;;;;;;;4759295;30;20044;-69
2022/11/14 03:54:35;;;;;;;7.53;6.10;;;;;;;;;;4757269;30;20047;-69
2022/11/14 03:57:21;;;;;;;6.78;6.18;;;;;;;;;;4757872;30;20096;-69
2022/11/14 04:00:07;;;;;;;6.32;5.85;;;;;;;;;;4763556;30;20054;-69
2022/11/14 04:02:54;;;;;;;7.45;6.88;;;;;;;;;;4758690;30;20103;-69
2022/11/14 04:05:43;;;;;;;6.07;5.55;;;;;;;;;;4757360;30;20658;-69
2022/11/14 04:08:29;;;;;;;8.93;5.95;;;;;;;;;;4753415;30;20507;-70
2022/11/14 04:11:16;;;;;;;7.72;7.05;;;;;;;;;;4764537;30;20455;-70
2022/11/14 04:14:02;;;;;;;5.97;5.47;;;;;;;;;;4762461;30;20048;-70
2022/11/14 04:16:48;;;;;;;7.88;5.88;;;;;;;;;;4764287;30;20067;-70
2022/11/14 04:19:33;;;;;;;5.70;5.20;;;;;;;;;;4757161;30;20055;-70
2022/11/14 04:22:19;;;;;;;6.13;5.65;;;;;;;;;;4754905;30;20059;-70
2022/11/14 04:25:06;;;;;;;5.05;4.65;;;;;;;;;;4767962;30;20044;-70
2022/11/14 04:27:52;;;;;;;9.90;7.13;;;;;;;;;;4775925;30;20156;-70
2022/11/14 04:30:38;;;;;;;7.07;6.53;;;;;;;;;;4761999;30;20424;-70
2022/11/14 04:33:24;;;;;;;6.32;5.82;;;;;;;;;;4757104;30;20047;-70
2022/11/14 04:36:10;;;;;;;7.38;6.68;;;;;;;;;;4758470;30;20169;-69
2022/11/14 04:38:55;;;;;;;7.32;6.80;;;;;;;;;;4756073;30;20121;-70
2022/11/14 04:41:41;;;;;;;6.97;6.43;;;;;;;;;;4754957;30;20060;-69
2022/11/14 04:44:27;;;;;;;7.07;6.47;;;;;;;;;;4758782;30;20071;-70
2022/11/14 04:47:13;;;;;;;7.50;6.93;;;;;;;;;;4765210;30;20119;-69
2022/11/14 04:49:58;;;;;;;7.18;6.47;;;;;;;;;;4754270;30;20044;-69
2022/11/14 04:52:44;;;;;;;6.88;6.38;;;;;;;;;;4759489;30;20078;-69
2022/11/14 04:55:30;;;;;;;7.70;7.00;;;;;;;;;;4758577;30;20040;-69
2022/11/14 04:58:16;;;;;;;7.40;6.72;;;;;;;;;;4754696;30;20158;-69
2022/11/14 05:01:08;;;;;;;7.95;7.25;;;;;;;;;;4758305;30;20094;-69
2022/11/14 05:03:55;;;;;;;8.98;8.18;;;;;;;;;;4754362;30;20471;-70
2022/11/14 05:06:41;;;;;;;8.80;7.93;;;;;;;;;;4761703;30;20621;-69
2022/11/14 05:09:28;;;;;;;10.27;9.05;;;;;;;;;;4753756;30;20048;-69
2022/11/14 05:12:14;;;;;;;8.63;7.82;;;;;;;;;;4761473;30;20292;-69
2022/11/14 05:14:59;;;;;;;9.38;8.27;;;;;;;;;;4754855;30;20071;-69
2022/11/14 05:17:45;;;;;;;10.48;9.40;;;;;;;;;;4752910;30;20517;-69
2022/11/14 05:20:31;;;;;;;8.48;7.70;;;;;;;;;;4746343;30;20133;-70
2022/11/14 05:23:21;;;;;;;9.70;8.70;;;;;;;;;;4758858;30;20059;-70
2022/11/14 05:26:08;;;;;;;12.07;10.02;;;;;;;;;;4757338;30;20051;-69
2022/11/14 05:28:54;;;;;;;11.55;8.85;;;;;;;;;;4765690;30;20109;-69
2022/11/14 05:31:40;;;;;;;10.88;9.65;;;;;;;;;;4748533;30;20059;-70
2022/11/14 05:34:26;;;;;;;8.95;8.10;;;;;;;;;;4757501;30;20262;-70
2022/11/14 05:37:12;;;;;;;10.40;9.27;;;;;;;;;;4756016;30;20521;-69
2022/11/14 05:39:58;;;;;;;9.48;8.52;;;;;;;;;;4761658;30;20394;-69
2022/11/14 05:42:44;;;;;;;10.02;9.05;;;;;;;;;;4754569;30;20174;-70
2022/11/14 05:45:30;;;;;;;9.68;8.80;;;;;;;;;;4765050;30;20413;-70
2022/11/14 05:48:16;;;;;;;8.20;7.50;;;;;;;;;;4754825;30;20059;-70
2022/11/14 05:51:03;;;;;;;8.00;7.28;;;;;;;;;;4754678;30;20079;-70
2022/11/14 05:53:49;;;;;;;8.27;7.25;;;;;;;;;;4758885;30;20059;-70
2022/11/14 05:56:35;;;;;;;7.78;7.07;;;;;;;;;;4763967;30;20055;-70
2022/11/14 05:59:22;;;;;;;10.52;7.93;;;;;;;;;;4760322;30;20052;-71
2022/11/14 06:02:08;;;;;;;7.85;7.13;;;;;;;;;;4755510;30;20778;-70
2022/11/14 06:04:54;;;;;;;9.15;8.18;;;;;;;;;;4758024;30;20090;-70
2022/11/14 06:07:40;;;;;;;8.73;7.93;;;;;;;;;;4760514;30;20059;-70
2022/11/14 06:10:26;;;;;;;10.98;9.95;;;;;;;;;;4753923;30;20118;-70
2022/11/14 06:13:12;;;;;;;9.48;8.48;;;;;;;;;;4757370;30;20476;-69
2022/11/14 06:16:18;;;;;;;8.98;8.07;;;;;;;;;;4755302;30;20189;-71
2022/11/14 06:19:04;;;;;;;9.40;7.07;;;;;;;;;;4753577;30;20139;-70
2022/11/14 06:21:51;;;;;;;7.25;6.65;;;;;;;;;;4756621;30;20043;-74
2022/11/14 06:24:37;;;;;;;6.38;5.88;;;;;;;;;;4756125;30;20070;-71
2022/11/14 06:27:23;;;;;;;6.47;5.97;;;;;;;;;;4758936;30;20515;-70
2022/11/14 06:30:09;;;;;;;8.18;6.88;;;;;;;;;;4755460;30;20052;-70
2022/11/14 06:32:58;;;;;;;6.32;5.82;;;;;;;;;;4757597;30;20584;-71
2022/11/14 06:35:44;;;;;;;5.82;5.32;;;;;;;;;;4757171;30;20079;-71
2022/11/14 06:38:30;;;;;;;6.53;5.90;;;;;;;;;;4757413;30;20065;-69
2022/11/14 06:41:20;;;;;;;6.57;6.00;;;;;;;;;;4754697;30;20123;-70
2022/11/14 06:44:07;;;;;;;6.40;5.65;;;;;;;;;;4758391;30;20541;-70
2022/11/14 06:46:53;;;;;;;6.50;5.97;;;;;;;;;;4756460;30;20059;-69
2022/11/14 06:49:39;;;;;;;7.10;6.38;;;;;;;;;;4761389;30;20113;-69
2022/11/14 06:52:26;;;;;;;9.35;6.93;;;;;;;;;;4766021;30;20060;-69
2022/11/14 06:55:12;;;;;;;7.50;6.80;;;;;;;;;;4766446;30;20051;-69
2022/11/14 06:57:58;;;;;;;7.28;6.63;;;;;;;;;;4764789;30;20133;-71
2022/11/14 07:00:43;;;;;;;7.20;6.50;;;;;;;;;;4763538;30;20050;-70
2022/11/14 07:03:29;;;;;;;7.30;6.75;;;;;;;;;;4763662;30;20100;-70
2022/11/14 07:06:16;;;;;;;7.57;6.88;;;;;;;;;;4764933;30;20040;-69
2022/11/14 07:09:03;;;;;;;8.98;8.07;;;;;;;;;;4759987;30;20055;-70
2022/11/14 07:11:48;;;;;;;7.50;6.75;;;;;;;;;;4756027;30;20505;-70
2022/11/14 07:14:34;;;;;;;8.63;7.75;;;;;;;;;;4757629;30;20051;-70
2022/11/14 07:17:20;;;;;;;7.90;7.15;;;;;;;;;;4753185;30;20073;-70
2022/11/14 07:20:10;;;;;;;7.78;7.10;;;;;;;;;;4754498;30;20571;-70
2022/11/14 07:22:56;;;;;;;9.30;6.45;;;;;;;;;;4757659;30;20196;-71
2022/11/14 07:25:42;;;;;;;6.93;6.32;;;;;;;;;;4754281;30;20063;-71
2022/11/14 07:28:27;;;;;;;7.45;6.75;;;;;;;;;;4752671;30;20044;-70
2022/11/14 07:31:15;;;;;;;6.82;6.22;;;;;;;;;;4751714;30;20097;-70
2022/11/14 07:34:01;;;;;;;7.85;7.05;;;;;;;;;;4750245;30;20048;-70
2022/11/14 07:36:46;;;;;;;7.72;7.03;;;;;;;;;;4757825;30;20139;-69
2022/11/14 07:39:32;;;;;;;9.30;8.40;;;;;;;;;;4756433;30;20035;-70
2022/11/14 07:42:28;;;;;;;8.18;7.38;;;;;;;;;;4771673;29;20960;-73
2022/11/14 07:45:14;;;;;;;9.30;8.40;;;;;;;;;;4770063;29;20122;-72
2022/11/14 07:48:01;;;;;;;10.68;9.38;;;;;;;;;;4756024;30;20626;-73
2022/11/14 07:50:47;;;;;;;10.55;8.70;;;;;;;;;;4756529;30;20047;-72
2022/11/14 07:53:33;;;;;;;8.50;7.78;;;;;;;;;;4777301;29;20059;-73
2022/11/14 07:56:21;;;;;;;8.15;7.43;;;;;;;;;;4755001;30;20055;-73
2022/11/14 07:59:07;;;;;;;11.00;8.77;;;;;;;;;;4753467;30;20131;-72
2022/11/14 08:01:52;;;;;;;10.75;7.78;;;;;;;;;;4758747;30;20401;-74
2022/11/14 08:04:38;;;;;;;11.93;8.10;;;;;;;;;;4756748;30;20048;-74
2022/11/14 08:07:24;;;;;;;11.85;8.60;;;;;;;;;;4755849;30;20077;-73
2022/11/14 08:10:12;;;;;;;13.43;10.25;;;;;;;;;;4764098;30;20058;-73
2022/11/14 08:13:02;;;;;;;11.80;10.60;;;;;;;;;;4756009;30;20528;-73
2022/11/14 08:16:09;;;;;;;10.32;9.32;;;;;;;;;;4760140;30;20055;-73
2022/11/14 08:18:59;;;;;;;12.07;7.82;;;;;;;;;;4756647;30;20108;-73
2022/11/14 08:21:45;;;;;;;10.65;9.32;;;;;;;;;;4755951;30;20055;-73
2022/11/14 08:24:31;;;;;;;11.80;9.68;;;;;;;;;;4753904;30;20064;-74
2022/11/14 08:27:17;;;;;;;10.18;9.18;;;;;;;;;;4752283;30;20055;-73
2022/11/14 08:30:03;;;;;;;10.95;9.85;;;;;;;;;;4751135;30;20058;-73
2022/11/14 08:32:50;;;;;;;10.10;9.18;;;;;;;;;;4758181;30;20055;-73
2022/11/14 08:35:36;;;;;;;11.73;9.43;;;;;;;;;;4767446;30;20123;-73
2022/11/14 08:38:21;;;;;;;13.02;9.75;;;;;;;;;;4766120;30;20405;-73
2022/11/14 08:41:07;;;;;;;10.10;9.10;;;;;;;;;;4781284;29;20047;-72
2022/11/14 08:43:53;;;;;;;12.38;9.90;;;;;;;;;;4765079;30;20097;-73
2022/11/14 08:46:39;;;;;;;10.10;9.20;;;;;;;;;;4757949;30;20055;-73
2022/11/14 08:49:25;;;;;;;13.57;12.48;;;;;;;;;;4757381;30;20598;-73
2022/11/14 08:52:10;;;;;;;19.10;17.83;;;;;;;;;;4760395;30;20143;-73
2022/11/14 08:55:01;;;;;;;29.08;27.10;;;;;;;;;;4760963;30;20051;-72
2022/11/14 08:57:47;;;;;;;34.38;32.15;;;;;;;;;;4752309;30;20529;-73
2022/11/14 09:00:34;;;;;;;41.45;38.80;;;;;;;;;;4760692;30;20047;-73
2022/11/14 09:03:20;;;;;;;34.90;32.58;;;;;;;;;;4751019;30;20102;-73
2022/11/14 09:06:06;;;;;;;44.42;41.65;;;;;;;;;;4758579;30;20062;-73
2022/11/14 09:08:52;;;;;;;49.83;46.33;;;;;;;;;;4750108;30;20047;-73
2022/11/14 09:11:38;;;;;;;48.10;45.17;;;;;;;;;;4750704;30;20043;-74
2022/11/14 09:14:24;;;;;;;45.25;42.42;;;;;;;;;;4765200;30;20057;-73
2022/11/14 09:17:10;;;;;;;55.85;52.20;;;;;;;;;;4765046;30;20134;-73
2022/11/14 09:19:56;;;;;;;51.65;48.35;;;;;;;;;;4764455;30;20078;-73
2022/11/14 09:22:42;;;;;;;48.20;45.35;;;;;;;;;;4764606;30;20058;-73
2022/11/14 09:25:28;;;;;;;38.47;36.17;;;;;;;;;;4765276;30;20132;-73
2022/11/14 09:28:14;;;;;;;38.67;36.35;;;;;;;;;;4765330;30;20493;-72
2022/11/14 09:31:05;;;;;;;39.63;37.33;;;;;;;;;;4763741;30;20134;-73
2022/11/14 09:33:51;;;;;;;32.83;30.77;;;;;;;;;;4761595;30;20044;-73
2022/11/14 09:36:37;;;;;;;27.17;25.42;;;;;;;;;;4764142;30;20051;-73
2022/11/14 09:39:23;;;;;;;36.67;34.38;;;;;;;;;;4765017;30;20040;-73
2022/11/14 09:42:09;;;;;;;24.35;22.85;;;;;;;;;;4781242;29;20045;-73
2022/11/14 09:45:06;;;;;;;18.38;17.10;;;;;;;;;;4783231;30;20050;-73
2022/11/14 09:48:06;;;;;;;21.15;19.63;;;;;;;;;;4781611;30;20634;-72
2022/11/14 09:51:04;;;;;;;23.55;22.05;;;;;;;;;;4764814;30;20051;-73
2022/11/14 09:54:10;;;;;;;25.20;23.55;;;;;;;;;;4762475;30;20043;-73
2022/11/14 09:56:56;;;;;;;17.23;16.15;;;;;;;;;;4763496;30;20556;-73
2022/11/14 09:59:43;;;;;;;23.58;22.02;;;;;;;;;;4765032;30;20443;-73
2022/11/14 10:02:48;;;;;;;21.00;19.60;;;;;;;;;;4761293;30;20406;-73
2022/11/14 10:05:52;;;;;;;21.85;20.45;;;;;;;;;;4763569;30;20058;-73
2022/11/14 10:08:48;;;;;;;18.52;17.20;;;;;;;;;;4764589;30;20524;-72
2022/11/14 10:11:37;;;;;;;18.08;16.98;;;;;;;;;;4763908;30;20433;-73
2022/11/14 10:14:32;;;;;;;17.00;15.98;;;;;;;;;;4764366;30;20497;-73
2022/11/14 10:17:29;;;;;;;20.38;19.05;;;;;;;;;;4763685;30;20064;-74
2022/11/14 10:20:33;;;;;;;23.65;22.08;;;;;;;;;;4765624;30;20197;-72
2022/11/14 10:23:25;;;;;;;23.65;22.20;;;;;;;;;;4765013;30;20054;-73
2022/11/14 10:26:17;;;;;;;21.90;20.38;;;;;;;;;;4764523;30;20055;-73
2022/11/14 10:29:19;;;;;;;17.85;16.70;;;;;;;;;;4764971;30;20130;-74
2022/11/14 10:32:05;;;;;;;22.48;21.15;;;;;;;;;;4763455;30;20167;-72
2022/11/14 10:34:58;;;;;;;27.42;25.70;;;;;;;;;;4766311;30;20058;-73
2022/11/14 10:38:03;;;;;;;32.95;30.98;;;;;;;;;;4764517;30;20405;-73
2022/11/14 10:40:51;;;;;;;31.48;29.60;;;;;;;;;;4763480;30;20040;-73
2022/11/14 10:43:45;;;;;;;24.02;22.55;;;;;;;;;;4763166;30;20520;-69
2022/11/14 10:46:39;;;;;;;32.08;29.95;;;;;;;;;;4769582;30;20460;-73
2022/11/14 10:49:25;;;;;;;34.88;32.85;;;;;;;;;;4782021;30;20050;-73
2022/11/14 10:52:17;;;;;;;40.55;38.13;;;;;;;;;;4780140;29;20108;-73
2022/11/14 10:55:06;;;;;;;35.80;33.60;;;;;;;;;;4781447;30;20099;-71
2022/11/14 10:57:52;;;;;;;33.60;31.67;;;;;;;;;;4764265;30;20094;-73
2022/11/14 11:00:38;;;;;;;38.33;35.97;;;;;;;;;;4758559;30;20058;-73
2022/11/14 11:03:43;;;;;;;23.50;22.13;;;;;;;;;;4744008;30;20463;-73
2022/11/14 11:06:29;;;;;;;41.88;39.38;;;;;;;;;;4746374;30;20050;-72
2022/11/14 11:12:46;;;;;;;36.75;34.53;;;;;;;;;;4764208;30;20051;-72
2022/11/14 11:15:38;;;;;;;38.35;36.00;;;;;;;;;;4763260;30;20055;-73
2022/11/14 11:18:24;;;;;;;;;;;;;;;;;;4752258;30;20052;-72
2022/11/14 11:21:11;;;;;;;22.80;21.35;;;;;;;;;;4749757;30;19926;-73
2022/11/14 11:23:58;;;;;;;28.63;26.95;;;;;;;;;;4748731;30;20059;-72
2022/11/14 11:26:44;;;;;;;29.30;27.58;;;;;;;;;;4751661;30;20151;-73
2022/11/14 11:29:29;;;;;;;41.65;39.25;;;;;;;;;;4756195;30;20051;-73
2022/11/14 11:32:25;;;;;;;44.38;41.55;;;;;;;;;;4749762;30;20074;-73
2022/11/14 11:35:15;;;;;;;39.95;37.55;;;;;;;;;;4748310;30;20405;-72
2022/11/14 11:38:01;;;;;;;53.88;50.70;;;;;;;;;;4759243;30;20048;-72
2022/11/14 11:40:50;;;;;;;45.42;42.80;;;;;;;;;;4748771;30;20055;-72
2022/11/14 11:43:38;;;;;;;39.08;36.67;;;;;;;;;;4749611;30;20048;-73
2022/11/14 11:46:43;;;;;;;48.72;45.90;;;;;;;;;;4755867;30;20210;-74
2022/11/14 11:49:46;;;;;;;47.58;44.80;;;;;;;;;;4770310;30;20059;-74
2022/11/14 11:52:57;;;;;;;38.17;35.97;;;;;;;;;;4766497;30;20048;-74
2022/11/14 11:55:44;;;;;;;44.42;41.75;;;;;;;;;;4761489;30;20055;-73
2022/11/14 11:58:30;;;;;;;50.65;47.65;;;;;;;;;;4763119;30;20055;-74
2022/11/14 12:01:16;;;;;;;49.83;46.95;;;;;;;;;;4766296;30;20048;-72
2022/11/14 12:04:03;;;;;;;43.55;41.08;;;;;;;;;;4760329;30;20051;-73
2022/11/14 12:06:58;;;;;;;40.83;38.50;;;;;;;;;;4759265;30;20040;-73
2022/11/14 12:09:44;;;;;;;50.40;47.53;;;;;;;;;;4767352;30;20524;-73
2022/11/14 12:13:10;;;;;;;38.50;36.30;;;;;;;;;;4769042;30;20048;-74
2022/11/14 12:15:56;;;;;;;50.60;47.72;;;;;;;;;;4774922;30;20060;-72
2022/11/14 12:19:01;;;;;;;39.60;37.35;;;;;;;;;;4763760;30;20060;-72
2022/11/14 12:21:47;;;;;;;43.85;41.10;;;;;;;;;;4764007;30;20048;-74
2022/11/14 12:24:56;;;;;;;40.45;38.15;;;;;;;;;;4773813;30;20193;-73
2022/11/14 12:27:48;;;;;;;41.92;39.40;;;;;;;;;;4784701;24;20508;-69
2022/11/14 12:30:38;;;;;;;44.88;42.30;;;;;;;;;;4759263;30;20522;-69
2022/11/14 12:33:24;;;;;;;50.72;47.90;;;;;;;;;;4763377;30;20074;-68
2022/11/14 12:36:11;;;;;;;42.10;39.65;;;;;;;;;;4764736;30;20216;-69
2022/11/14 12:38:58;;;;;;;38.53;36.38;;;;;;;;;;4757150;30;20102;-70
2022/11/14 12:41:44;;;;;;;50.42;47.53;;;;;;;;;;4780720;24;20055;-73
2022/11/14 12:44:30;;;;;;;41.53;39.25;;;;;;;;;;4783980;29;20050;-74
2022/11/14 12:47:17;;;;;;;45.08;42.42;;;;;;;;;;4783030;29;20039;-72
2022/11/14 12:50:07;;;;;;;43.90;41.33;;;;;;;;;;4795963;29;20161;-73
2022/11/14 12:52:54;;;;;;;41.70;39.35;;;;;;;;;;4800956;29;20122;-74
2022/11/14 12:55:40;;;;;;;41.63;39.30;;;;;;;;;;4800071;29;20131;-73
2022/11/14 12:58:31;;;;;;;39.42;37.13;;;;;;;;;;4799201;29;20057;-72
2022/11/14 13:01:20;;;;;;;37.08;34.92;;;;;;;;;;4789642;29;20055;-73
2022/11/14 13:04:17;;;;;;;48.15;45.42;;;;;;;;;;4783043;29;20055;-73
2022/11/14 13:07:11;;;;;;;38.25;36.13;;;;;;;;;;4770364;29;20051;-71
2022/11/14 13:09:58;;;;;;;38.63;36.38;;;;;;;;;;4794394;29;20137;-73
2022/11/14 13:21:44;;;;;;;35.13;33.17;;;;;;;;;;4779498;29;20401;-73
2022/11/14 13:22:38;;;;;;;35.15;33.00;;;;;;;;;;4779093;29;20162;-73
2022/11/14 13:25:24;;;;;;;37.15;35.10;;;;;;;;;;4777596;29;20552;-73
2022/11/14 13:28:28;;;;;;;40.88;38.58;;;;;;;;;;4789546;29;20050;-74
2022/11/14 13:31:16;;;;;;;42.67;40.30;;;;;;;;;;4788295;29;20055;-72
2022/11/14 13:34:22;;;;;;;45.03;42.42;;;;;;;;;;4775276;29;20432;-72
2022/11/14 13:37:28;;;;;;;41.08;38.45;;;;;;;;;;4776468;29;20073;-72
2022/11/14 13:40:18;;;;;;;42.42;39.92;;;;;;;;;;4793961;29;20594;-73
2022/11/14 13:43:23;;;;;;;49.08;46.22;;;;;;;;;;4794317;29;20489;-73
2022/11/14 13:46:32;;;;;;;45.17;42.38;;;;;;;;;;4792725;29;20147;-72
2022/11/14 13:49:37;;;;;;;44.40;41.85;;;;;;;;;;4793714;29;20050;-73
2022/11/14 13:52:26;;;;;;;42.88;39.97;;;;;;;;;;4776782;29;20394;-72
2022/11/14 13:55:41;;;;;;;46.58;43.78;;;;;;;;;;4768843;29;20428;-73
2022/11/14 13:58:33;;;;;;;44.38;41.75;;;;;;;;;;4775672;29;20062;-74
2022/11/14 14:01:28;;;;;;;42.95;40.47;;;;;;;;;;4783357;29;20047;-76
2022/11/14 14:04:35;;;;;;;41.10;38.50;;;;;;;;;;4776818;29;20488;-73
2022/11/14 14:07:43;;;;;;;41.03;38.60;;;;;;;;;;4765802;29;20082;-73
2022/11/14 14:10:39;;;;;;;40.83;38.35;;;;;;;;;;4777480;29;20520;-73
2022/11/14 14:13:28;;;;;;;43.58;41.15;;;;;;;;;;4776847;29;20123;-73
2022/11/14 14:16:58;;;;;;;40.33;37.85;;;;;;;;;;4777137;29;20063;-74
2022/11/14 14:19:59;;;;;;;43.55;41.03;;;;;;;;;;4777522;29;20047;-73
2022/11/14 14:22:45;;;;;;;46.75;44.05;;;;;;;;;;4775649;30;20043;-73
2022/11/14 14:25:38;;;;;;;33.88;31.95;;;;;;;;;;4772165;30;20048;-72
2022/11/14 14:28:39;;;;;;;42.55;39.97;;;;;;;;;;4767935;30;20517;-73
2022/11/14 14:31:31;;;;;;;40.78;38.35;;;;;;;;;;4769094;30;20051;-72
2022/11/14 14:34:21;;;;;;;47.95;45.15;;;;;;;;;;4772892;29;20539;-72
2022/11/14 14:37:16;;;;;;;39.55;37.25;;;;;;;;;;4776606;30;20053;-72
2022/11/14 14:40:21;;;;;;;31.95;29.92;;;;;;;;;;4774634;30;20038;-74
2022/11/14 14:43:07;;;;;;;33.08;31.00;;;;;;;;;;4769178;30;20047;-72
2022/11/14 14:45:56;;;;;;;41.67;38.85;;;;;;;;;;4771579;30;20507;-72
2022/11/14 14:48:43;;;;;;;35.05;32.70;;;;;;;;;;4775823;30;20051;-73
2022/11/14 14:51:30;;;;;;;46.90;43.78;;;;;;;;;;4766811;30;20059;-73
2022/11/14 14:54:23;;;;;;;38.72;36.20;;;;;;;;;;4763325;30;20051;-73
2022/11/14 14:57:17;;;;;;;37.05;34.83;;;;;;;;;;4756495;30;20147;-73
2022/11/14 15:00:16;;;;;;;31.30;29.42;;;;;;;;;;4768123;30;20232;-72
2022/11/14 15:03:02;;;;;;;37.08;34.85;;;;;;;;;;4773174;29;20078;-72
2022/11/14 15:05:48;;;;;;;34.35;32.20;;;;;;;;;;4771812;29;20044;-72
2022/11/14 15:08:36;;;;;;;38.58;36.15;;;;;;;;;;4768050;30;20224;-72
2022/11/14 15:11:23;;;;;;;33.38;30.77;;;;;;;;;;4770826;30;20067;-72
2022/11/14 15:14:14;;;;;;;;;;;;;;;;;;4764303;30;20555;-73
2022/11/14 15:17:00;;;;;;;12.70;11.82;;;;;;;;;;4784922;29;19934;-73
2022/11/14 15:19:46;;;;;;;20.00;18.58;;;;;;;;;;4764646;30;20052;-72
2022/11/14 15:22:32;;;;;;;21.83;20.30;;;;;;;;;;4769987;30;20054;-72
2022/11/14 15:25:21;;;;;;;27.35;25.52;;;;;;;;;;4773464;30;20110;-72
2022/11/14 15:28:25;;;;;;;23.75;21.90;;;;;;;;;;4758806;30;20047;-72
2022/11/14 15:31:19;;;;;;;24.63;22.90;;;;;;;;;;4758875;30;20516;-71
2022/11/14 15:34:25;;;;;;;23.90;22.15;;;;;;;;;;4763522;30;20307;-72
2022/11/14 15:37:17;;;;;;;20.90;19.02;;;;;;;;;;4764747;30;20059;-72
2022/11/14 15:40:31;;;;;;;27.55;23.52;;;;;;;;;;4765410;30;20059;-73
2022/11/14 15:43:37;;;;;;;27.02;20.52;;;;;;;;;;4768403;30;20047;-73
2022/11/14 15:46:32;;;;;;;31.75;23.13;;;;;;;;;;4753931;30;20133;-72
2022/11/14 15:49:25;;;;;;;32.60;25.73;;;;;;;;;;4770607;30;20043;-72
2022/11/14 15:52:22;;;;;;;18.73;17.00;;;;;;;;;;4770973;29;20052;-72
2022/11/14 15:55:13;;;;;;;16.83;15.35;;;;;;;;;;4778145;30;20111;-72
2022/11/14 15:57:59;;;;;;;14.25;12.95;;;;;;;;;;4763162;30;20053;-73
2022/11/14 16:01:08;;;;;;;18.42;17.08;;;;;;;;;;4769498;30;20043;-72
2022/11/14 16:03:54;;;;;;;12.88;11.90;;;;;;;;;;4765242;30;20098;-72
2022/11/14 16:06:40;;;;;;;17.05;15.52;;;;;;;;;;4771880;30;20056;-72
2022/11/14 16:09:26;;;;;;;13.75;12.65;;;;;;;;;;4761612;30;20036;-72
2022/11/14 16:12:12;;;;;;;12.63;11.63;;;;;;;;;;4761434;30;20055;-74
2022/11/14 16:14:57;;;;;;;13.32;12.35;;;;;;;;;;4765627;30;20040;-72
2022/11/14 16:17:44;;;;;;;13.73;12.65;;;;;;;;;;4777340;29;20050;-72
2022/11/14 16:20:36;;;;;;;12.90;11.88;;;;;;;;;;4786349;29;20062;-73
2022/11/14 16:23:22;;;;;;;12.20;11.35;;;;;;;;;;4777432;30;20433;-73
2022/11/14 16:26:08;;;;;;;12.48;11.07;;;;;;;;;;4763162;30;20317;-73
2022/11/14 16:28:55;;;;;;;13.23;12.02;;;;;;;;;;4765824;30;20048;-72
2022/11/14 16:31:42;;;;;;;20.00;16.52;;;;;;;;;;4763469;30;20122;-72
2022/11/14 16:34:28;;;;;;;21.23;19.48;;;;;;;;;;4774102;29;20051;-72
2022/11/14 16:37:14;;;;;;;11.43;10.43;;;;;;;;;;4775827;29;20287;-73
2022/11/14 16:40:02;;;;;;;14.43;13.32;;;;;;;;;;4781780;29;20062;-73
2022/11/14 16:42:53;;;;;;;12.48;11.48;;;;;;;;;;4774920;29;20513;-73
2022/11/14 16:45:39;;;;;;;12.65;11.50;;;;;;;;;;4772926;29;20055;-72
2022/11/14 16:48:25;;;;;;;14.48;13.27;;;;;;;;;;4772542;29;20047;-72
2022/11/14 16:51:11;;;;;;;15.02;13.52;;;;;;;;;;4774668;29;20048;-73
2022/11/14 16:54:20;;;;;;;15.68;13.70;;;;;;;;;;4773787;29;20150;-73